Zumbro Falls, MN

1:57 AM CDT on May 06, 2015 (GMT -0500)
Lake Zumbro Postier Point | | Change Station
CLOSE
Current Station
Personal Weather Station
Location: Oronoco, MN
Elevation: 919 ft
Nearby Weather Stations

Elev 919 ft 44.19 °N, 92.48 °W | Updated 12 minutes ago

Overcast
Overcast
54.5 °F
Feels Like 54.5 °F
N
5.3
Wind Variable Wind from ESE

Today
High -- | Low -- °F
--% Chance of Precip.
Yesterday
High -- | Low -- °F
Precip. -- in
5:54 AM 8:19 PM
Waning Gibbous, 95% visible
Pressure 30.13 in
Visibility 0.8 miles
Clouds Overcast 200 ft
Dew Point 53 °F
Humidity 94%
Rainfall 0.00 in
Snow Depth Not available.
UV 0 out of 12
Pollen 9.60 out of 12
Air Quality Not available.
Flu Activity Sporadic
METAR K9MN 060634Z AUTO 11007KT 3/4SM OVC002 12/12 A3013 RMK AO1 T01170118

More Conditions Fewer Conditions

Pressure 30.13 in
Visibility 0.8 miles
Clouds Overcast 200 ft
Dew Point 53 °F
Humidity 94%
Rainfall 0.00 in
Snow Depth Not available.
UV 0 out of 12
Pollen 9.60 out of 12
Air Quality Not available.
Flu Activity Sporadic
METAR K9MN 060634Z AUTO 11007KT 3/4SM OVC002 12/12 A3013 RMK AO1 T01170118

More Conditions Fewer Conditions

10-Day Weather Forecast

Almanac

Astronomy

May. 06, 2015 Rise Set
Actual Time
Civil Twilight
Nautical Twilight
Astronomical Twilight
Moon
Length of Visible Light
Length of Day
Tomorrow will be .
, % of the Moon is Illuminated

Today's Extremes

State Highs State Lows

Community

WunderPhotos

Upload Photos

1,818,850 photos uploaded!

WunderBlogs® & News

Nearby

Air Quality

  Air Quality AQ Index Pollutant
Not available.

Snow Depth

Station Depth Elevation

Earthquake Activity

City Distance Mag. Time & Date
Minimum magnitude displayed is 2.5.

Coastal Water Temperatures

Place Temperature

Stations

Nearby Weather Stations

Station Location Temp. Windchill Dew Point Humidity Wind Precip. Elev Updated Type